sensor_id;sensor_type;location;lat;lon;timestamp;pressure;altitude;pressure_sealevel;temperature;humidity
20368;BME280;10343;52.402;9.796;2023-04-03T00:01:10;102518.38;;;12.64;35.13
20368;BME280;10343;52.402;9.796;2023-04-03T00:03:38;102520.16;;;12.62;34.80
20368;BME280;10343;52.402;9.796;2023-04-03T00:06:08;102517.53;;;11.91;36.39
20368;BME280;10343;52.402;9.796;2023-04-03T00:08:38;102527.28;;;12.31;35.88
20368;BME280;10343;52.402;9.796;2023-04-03T00:11:07;102530.84;;;12.13;35.94
20368;BME280;10343;52.402;9.796;2023-04-03T00:13:37;102523.78;;;12.18;35.86
20368;BME280;10343;52.402;9.796;2023-04-03T00:16:05;102527.28;;;11.98;36.44
20368;BME280;10343;52.402;9.796;2023-04-03T00:18:34;102526.38;;;12.53;35.49
20368;BME280;10343;52.402;9.796;2023-04-03T00:21:02;102532.53;;;11.52;37.14
20368;BME280;10343;52.402;9.796;2023-04-03T00:23:30;102530.84;;;12.06;36.12
20368;BME280;10343;52.402;9.796;2023-04-03T00:25:58;102526.34;;;12.63;35.53
20368;BME280;10343;52.402;9.796;2023-04-03T00:28:26;102532.34;;;13.30;34.35
20368;BME280;10343;52.402;9.796;2023-04-03T00:30:55;102537.88;;;12.69;35.21
20368;BME280;10343;52.402;9.796;2023-04-03T00:33:23;102531.69;;;11.82;36.29
20368;BME280;10343;52.402;9.796;2023-04-03T00:35:51;102536.16;;;12.16;36.25
20368;BME280;10343;52.402;9.796;2023-04-03T00:38:19;102539.69;;;12.15;36.55
20368;BME280;10343;52.402;9.796;2023-04-03T00:40:48;102548.59;;;12.38;35.83
20368;BME280;10343;52.402;9.796;2023-04-03T00:43:22;102545.03;;;12.43;35.90
20368;BME280;10343;52.402;9.796;2023-04-03T00:45:51;102545.91;;;11.97;36.31
20368;BME280;10343;52.402;9.796;2023-04-03T00:48:23;102552.06;;;11.89;36.67
20368;BME280;10343;52.402;9.796;2023-04-03T00:50:53;102550.38;;;12.16;35.78
20368;BME280;10343;52.402;9.796;2023-04-03T00:53:23;102552.97;;;11.81;36.53
20368;BME280;10343;52.402;9.796;2023-04-03T00:55:54;102545.88;;;11.80;36.36
20368;BME280;10343;52.402;9.796;2023-04-03T00:58:27;102546.78;;;11.94;36.53
20368;BME280;10343;52.402;9.796;2023-04-03T01:00:57;102563.50;;;11.45;37.43
20368;BME280;10343;52.402;9.796;2023-04-03T01:03:27;102559.16;;;11.73;36.93
20368;BME280;10343;52.402;9.796;2023-04-03T01:05:59;102555.44;;;11.27;37.85
20368;BME280;10343;52.402;9.796;2023-04-03T01:08:28;102555.69;;;12.21;36.25
20368;BME280;10343;52.402;9.796;2023-04-03T01:10:56;102571.19;;;10.85;38.44
20368;BME280;10343;52.402;9.796;2023-04-03T01:13:29;102558.06;;;11.13;38.04
20368;BME280;10343;52.402;9.796;2023-04-03T01:16:00;102560.03;;;11.72;36.91
20368;BME280;10343;52.402;9.796;2023-04-03T01:18:31;102557.44;;;11.97;36.52
20368;BME280;10343;52.402;9.796;2023-04-03T01:21:14;102560.91;;;11.71;37.14
20368;BME280;10343;52.402;9.796;2023-04-03T01:23:58;102561.66;;;11.26;37.99
20368;BME280;10343;52.402;9.796;2023-04-03T01:26:28;102566.06;;;11.22;37.66
20368;BME280;10343;52.402;9.796;2023-04-03T01:28:58;102561.72;;;11.39;37.93
20368;BME280;10343;52.402;9.796;2023-04-03T01:31:28;102559.88;;;11.29;37.79
20368;BME280;10343;52.402;9.796;2023-04-03T01:34:01;102569.63;;;11.24;37.94
20368;BME280;10343;52.402;9.796;2023-04-03T01:36:31;102567.06;;;11.60;37.07
20368;BME280;10343;52.402;9.796;2023-04-03T01:38:59;102566.00;;;11.11;37.89
20368;BME280;10343;52.402;9.796;2023-04-03T01:41:29;102576.44;;;10.76;39.15
20368;BME280;10343;52.402;9.796;2023-04-03T01:44:06;102569.75;;;11.67;37.12
20368;BME280;10343;52.402;9.796;2023-04-03T01:46:34;102572.06;;;10.82;38.27
20368;BME280;10343;52.402;9.796;2023-04-03T01:49:03;102580.25;;;11.30;37.83
20368;BME280;10343;52.402;9.796;2023-04-03T01:51:31;102573.09;;;11.11;37.70
20368;BME280;10343;52.402;9.796;2023-04-03T01:54:00;102578.22;;;10.77;38.22
20368;BME280;10343;52.402;9.796;2023-04-03T01:56:28;102579.22;;;10.99;38.13
20368;BME280;10343;52.402;9.796;2023-04-03T01:58:56;102572.03;;;10.78;38.76
20368;BME280;10343;52.402;9.796;2023-04-03T02:01:24;102575.91;;;11.55;37.51
20368;BME280;10343;52.402;9.796;2023-04-03T02:03:53;102583.78;;;11.23;37.63
20368;BME280;10343;52.402;9.796;2023-04-03T02:06:22;102578.50;;;11.32;38.12
20368;BME280;10343;52.402;9.796;2023-04-03T02:08:50;102580.22;;;11.21;37.98
20368;BME280;10343;52.402;9.796;2023-04-03T02:11:18;102582.00;;;11.25;37.56
20368;BME280;10343;52.402;9.796;2023-04-03T02:13:46;102576.69;;;11.22;37.94
20368;BME280;10343;52.402;9.796;2023-04-03T02:16:14;102578.63;;;11.69;37.60
20368;BME280;10343;52.402;9.796;2023-04-03T02:18:42;102575.03;;;11.55;37.31
20368;BME280;10343;52.402;9.796;2023-04-03T02:21:10;102577.66;;;11.41;37.61
20368;BME280;10343;52.402;9.796;2023-04-03T02:23:39;102582.97;;;11.47;37.67
20368;BME280;10343;52.402;9.796;2023-04-03T02:26:09;102583.06;;;11.77;36.88
20368;BME280;10343;52.402;9.796;2023-04-03T02:28:37;102590.81;;;11.12;38.12
20368;BME280;10343;52.402;9.796;2023-04-03T02:31:08;102586.00;;;10.52;39.62
20368;BME280;10343;52.402;9.796;2023-04-03T02:33:38;102581.16;;;10.05;40.48
20368;BME280;10343;52.402;9.796;2023-04-03T02:36:09;102589.97;;;10.00;40.71
20368;BME280;10343;52.402;9.796;2023-04-03T02:38:41;102588.00;;;9.81;40.52
20368;BME280;10343;52.402;9.796;2023-04-03T02:41:11;102597.84;;;9.16;42.10
20368;BME280;10343;52.402;9.796;2023-04-03T02:43:39;102603.34;;;9.34;41.90
20368;BME280;10343;52.402;9.796;2023-04-03T02:46:08;102600.69;;;9.34;41.80
20368;BME280;10343;52.402;9.796;2023-04-03T02:48:36;102598.53;;;9.03;42.69
20368;BME280;10343;52.402;9.796;2023-04-03T02:51:04;102598.19;;;9.44;41.70
20368;BME280;10343;52.402;9.796;2023-04-03T02:53:32;102598.69;;;9.15;42.86
20368;BME280;10343;52.402;9.796;2023-04-03T02:56:08;102596.72;;;9.74;40.80
20368;BME280;10343;52.402;9.796;2023-04-03T02:58:36;102601.88;;;9.58;41.58
20368;BME280;10343;52.402;9.796;2023-04-03T03:01:06;102600.31;;;9.79;41.29
20368;BME280;10343;52.402;9.796;2023-04-03T03:03:34;102603.16;;;9.19;42.01
20368;BME280;10343;52.402;9.796;2023-04-03T03:06:03;102600.19;;;9.66;41.53
20368;BME280;10343;52.402;9.796;2023-04-03T03:08:32;102602.94;;;9.04;42.08
20368;BME280;10343;52.402;9.796;2023-04-03T03:11:00;102603.84;;;9.04;43.00
20368;BME280;10343;52.402;9.796;2023-04-03T03:13:30;102610.81;;;9.69;41.04
20368;BME280;10343;52.402;9.796;2023-04-03T03:15:58;102605.50;;;9.66;41.68
20368;BME280;10343;52.402;9.796;2023-04-03T03:18:27;102610.63;;;9.51;41.27
20368;BME280;10343;52.402;9.796;2023-04-03T03:20:57;102614.41;;;9.04;42.56
20368;BME280;10343;52.402;9.796;2023-04-03T03:23:27;102625.84;;;9.01;42.43
20368;BME280;10343;52.402;9.796;2023-04-03T03:25:55;102622.03;;;9.47;41.47
20368;BME280;10343;52.402;9.796;2023-04-03T03:28:24;102612.09;;;9.27;41.81
20368;BME280;10343;52.402;9.796;2023-04-03T03:30:53;102601.28;;;9.84;41.09
20368;BME280;10343;52.402;9.796;2023-04-03T03:33:22;102607.75;;;10.14;40.58
20368;BME280;10343;52.402;9.796;2023-04-03T03:35:51;102619.16;;;10.07;40.94
20368;BME280;10343;52.402;9.796;2023-04-03T03:38:19;102615.63;;;10.08;39.82
20368;BME280;10343;52.402;9.796;2023-04-03T03:40:48;102607.09;;;10.38;40.12
20368;BME280;10343;52.402;9.796;2023-04-03T03:43:18;102608.31;;;10.79;39.27
20368;BME280;10343;52.402;9.796;2023-04-03T03:45:50;102609.75;;;10.40;39.53
20368;BME280;10343;52.402;9.796;2023-04-03T03:48:20;102618.84;;;10.69;39.62
20368;BME280;10343;52.402;9.796;2023-04-03T03:50:49;102610.22;;;11.04;38.75
20368;BME280;10343;52.402;9.796;2023-04-03T03:53:19;102611.75;;;10.68;39.55
20368;BME280;10343;52.402;9.796;2023-04-03T03:55:51;102611.53;;;10.38;39.68
20368;BME280;10343;52.402;9.796;2023-04-03T03:58:22;102620.06;;;10.06;39.79
20368;BME280;10343;52.402;9.796;2023-04-03T04:00:49;102618.47;;;10.26;40.57
20368;BME280;10343;52.402;9.796;2023-04-03T04:03:17;102621.53;;;10.76;39.43
20368;BME280;10343;52.402;9.796;2023-04-03T04:05:49;102619.69;;;10.62;39.01
20368;BME280;10343;52.402;9.796;2023-04-03T04:08:17;102611.81;;;10.75;39.18
20368;BME280;10343;52.402;9.796;2023-04-03T04:10:45;102619.22;;;10.11;40.54
20368;BME280;10343;52.402;9.796;2023-04-03T04:13:15;102620.16;;;10.18;40.46
20368;BME280;10343;52.402;9.796;2023-04-03T04:15:43;102612.16;;;10.13;40.03
20368;BME280;10343;52.402;9.796;2023-04-03T04:18:13;102611.81;;;10.75;39.18
20368;BME280;10343;52.402;9.796;2023-04-03T04:20:44;102616.59;;;10.14;40.06
20368;BME280;10343;52.402;9.796;2023-04-03T04:23:17;102617.72;;;10.38;39.49
20368;BME280;10343;52.402;9.796;2023-04-03T04:25:46;102613.19;;;10.26;40.34
20368;BME280;10343;52.402;9.796;2023-04-03T04:28:15;102621.88;;;10.13;39.85
20368;BME280;10343;52.402;9.796;2023-04-03T04:30:43;102627.09;;;10.07;40.22
20368;BME280;10343;52.402;9.796;2023-04-03T04:33:12;102630.56;;;9.98;40.55
20368;BME280;10343;52.402;9.796;2023-04-03T04:35:41;102625.50;;;10.24;40.46
20368;BME280;10343;52.402;9.796;2023-04-03T04:38:10;102629.03;;;10.23;39.77
20368;BME280;10343;52.402;9.796;2023-04-03T04:40:40;102624.81;;;10.39;39.64
20368;BME280;10343;52.402;9.796;2023-04-03T04:43:08;102632.78;;;10.44;39.69
20368;BME280;10343;52.402;9.796;2023-04-03T04:45:37;102640.34;;;10.03;40.38
20368;BME280;10343;52.402;9.796;2023-04-03T04:48:05;102643.81;;;9.98;40.91
20368;BME280;10343;52.402;9.796;2023-04-03T04:50:33;102638.16;;;10.50;39.88
20368;BME280;10343;52.402;9.796;2023-04-03T04:53:01;102633.47;;;11.50;37.99
20368;BME280;10343;52.402;9.796;2023-04-03T04:55:29;102640.81;;;10.48;39.69
20368;BME280;10343;52.402;9.796;2023-04-03T04:57:58;102638.38;;;10.81;38.89
20368;BME280;10343;52.402;9.796;2023-04-03T05:00:26;102644.00;;;11.30;37.94
20368;BME280;10343;52.402;9.796;2023-04-03T05:02:55;102647.81;;;10.43;39.54
20368;BME280;10343;52.402;9.796;2023-04-03T05:05:23;102646.22;;;10.61;39.22
20368;BME280;10343;52.402;9.796;2023-04-03T05:07:51;102651.56;;;10.68;39.51
20368;BME280;10343;52.402;9.796;2023-04-03T05:10:19;102651.09;;;11.31;38.75
20368;BME280;10343;52.402;9.796;2023-04-03T05:12:48;102653.88;;;11.58;37.90
20368;BME280;10343;52.402;9.796;2023-04-03T05:15:17;102656.66;;;10.42;39.53
20368;BME280;10343;52.402;9.796;2023-04-03T05:17:46;102656.81;;;10.61;39.10
20368;BME280;10343;52.402;9.796;2023-04-03T05:20:14;102648.09;;;10.77;39.03
20368;BME280;10343;52.402;9.796;2023-04-03T05:22:44;102665.88;;;9.95;40.63
20368;BME280;10343;52.402;9.796;2023-04-03T05:25:12;102664.56;;;10.38;39.84
20368;BME280;10343;52.402;9.796;2023-04-03T05:27:43;102674.81;;;10.07;40.33
20368;BME280;10343;52.402;9.796;2023-04-03T05:30:12;102672.97;;;9.27;41.91
20368;BME280;10343;52.402;9.796;2023-04-03T05:32:42;102670.50;;;9.40;41.62
20368;BME280;10343;52.402;9.796;2023-04-03T05:35:30;102666.59;;;10.69;39.72
20368;BME280;10343;52.402;9.796;2023-04-03T05:38:01;102680.22;;;10.16;40.62
20368;BME280;10343;52.402;9.796;2023-04-03T05:40:30;102678.81;;;10.49;40.21
20368;BME280;10343;52.402;9.796;2023-04-03T05:42:58;102679.38;;;11.28;38.97
20368;BME280;10343;52.402;9.796;2023-04-03T05:45:30;102681.34;;;10.36;39.67
20368;BME280;10343;52.402;9.796;2023-04-03T05:47:59;102681.13;;;11.22;38.78
20368;BME280;10343;52.402;9.796;2023-04-03T05:50:28;102689.53;;;10.61;39.38
20368;BME280;10343;52.402;9.796;2023-04-03T05:52:57;102695.81;;;10.76;39.16
20368;BME280;10343;52.402;9.796;2023-04-03T05:55:28;102688.25;;;11.30;38.62
20368;BME280;10343;52.402;9.796;2023-04-03T05:57:56;102693.31;;;10.93;39.20
20368;BME280;10343;52.402;9.796;2023-04-03T06:00:24;102693.34;;;10.94;39.16
20368;BME280;10343;52.402;9.796;2023-04-03T06:03:00;102698.81;;;11.17;38.35
20368;BME280;10343;52.402;9.796;2023-04-03T06:05:28;102699.97;;;11.70;37.89
20368;BME280;10343;52.402;9.796;2023-04-03T06:07:56;102705.84;;;11.11;38.71
20368;BME280;10343;52.402;9.796;2023-04-03T06:10:24;102706.84;;;11.30;38.34
20368;BME280;10343;52.402;9.796;2023-04-03T06:12:52;102711.94;;;10.97;39.33
20368;BME280;10343;52.402;9.796;2023-04-03T06:15:20;102726.91;;;10.89;38.87
20368;BME280;10343;52.402;9.796;2023-04-03T06:17:48;102725.66;;;11.68;37.81
20368;BME280;10343;52.402;9.796;2023-04-03T06:20:18;102723.84;;;11.61;37.57
20368;BME280;10343;52.402;9.796;2023-04-03T06:22:46;102728.16;;;11.42;38.31
20368;BME280;10343;52.402;9.796;2023-04-03T06:25:14;102717.69;;;11.67;38.11
20368;BME280;10343;52.402;9.796;2023-04-03T06:27:44;102725.38;;;11.25;38.74
20368;BME280;10343;52.402;9.796;2023-04-03T06:30:12;102723.28;;;10.81;38.86
20368;BME280;10343;52.402;9.796;2023-04-03T06:32:40;102722.09;;;10.46;39.19
20368;BME280;10343;52.402;9.796;2023-04-03T06:35:09;102721.50;;;10.77;39.27
20368;BME280;10343;52.402;9.796;2023-04-03T06:37:39;102720.22;;;11.50;38.21
20368;BME280;10343;52.402;9.796;2023-04-03T06:40:15;102718.75;;;12.04;37.17
20368;BME280;10343;52.402;9.796;2023-04-03T06:42:45;102729.28;;;11.90;37.66
20368;BME280;10343;52.402;9.796;2023-04-03T06:45:13;102733.41;;;11.28;38.01
20368;BME280;10343;52.402;9.796;2023-04-03T06:47:41;102734.69;;;12.11;36.98
20368;BME280;10343;52.402;9.796;2023-04-03T06:50:11;102732.66;;;11.55;37.30
20368;BME280;10343;52.402;9.796;2023-04-03T06:52:42;102741.13;;;11.00;38.30
20368;BME280;10343;52.402;9.796;2023-04-03T06:55:11;102746.78;;;11.48;37.64
20368;BME280;10343;52.402;9.796;2023-04-03T06:57:39;102737.97;;;11.54;37.12
20368;BME280;10343;52.402;9.796;2023-04-03T07:00:07;102751.56;;;12.19;36.70
20368;BME280;10343;52.402;9.796;2023-04-03T07:02:36;102754.50;;;11.13;37.74
20368;BME280;10343;52.402;9.796;2023-04-03T07:05:05;102761.25;;;10.70;37.85
20368;BME280;10343;52.402;9.796;2023-04-03T07:07:33;102754.22;;;12.10;36.69
20368;BME280;10343;52.402;9.796;2023-04-03T07:10:03;102756.09;;;12.60;35.55
20368;BME280;10343;52.402;9.796;2023-04-03T07:12:31;102754.34;;;13.02;34.93
20368;BME280;10343;52.402;9.796;2023-04-03T07:14:59;102750.75;;;13.56;33.85
20368;BME280;10343;52.402;9.796;2023-04-03T07:17:27;102762.09;;;14.09;33.52
20368;BME280;10343;52.402;9.796;2023-04-03T07:19:56;102768.47;;;13.72;33.44
20368;BME280;10343;52.402;9.796;2023-04-03T07:22:23;102765.72;;;13.96;32.78
20368;BME280;10343;52.402;9.796;2023-04-03T07:24:51;102771.16;;;13.65;33.26
20368;BME280;10343;52.402;9.796;2023-04-03T07:27:21;102759.69;;;12.71;34.17
20368;BME280;10343;52.402;9.796;2023-04-03T07:29:48;102761.38;;;12.48;34.92
20368;BME280;10343;52.402;9.796;2023-04-03T07:32:16;102759.59;;;13.73;32.90
20368;BME280;10343;52.402;9.796;2023-04-03T07:34:44;102765.72;;;13.91;33.30
20368;BME280;10343;52.402;9.796;2023-04-03T07:37:12;102769.16;;;14.27;31.93
20368;BME280;10343;52.402;9.796;2023-04-03T07:39:43;102767.53;;;13.83;32.79
20368;BME280;10343;52.402;9.796;2023-04-03T07:42:11;102773.84;;;12.64;34.62
20368;BME280;10343;52.402;9.796;2023-04-03T07:44:41;102775.66;;;12.91;34.27
20368;BME280;10343;52.402;9.796;2023-04-03T07:47:09;102772.03;;;13.70;32.88
20368;BME280;10343;52.402;9.796;2023-04-03T07:49:37;102772.13;;;13.03;33.18
20368;BME280;10343;52.402;9.796;2023-04-03T07:52:07;102772.03;;;13.78;32.39
20368;BME280;10343;52.402;9.796;2023-04-03T07:54:35;102774.66;;;13.85;31.94
20368;BME280;10343;52.402;9.796;2023-04-03T07:57:03;102767.66;;;13.41;32.71
20368;BME280;10343;52.402;9.796;2023-04-03T07:59:32;102777.38;;;13.68;32.25
20368;BME280;10343;52.402;9.796;2023-04-03T08:02:01;102773.88;;;13.32;32.90
20368;BME280;10343;52.402;9.796;2023-04-03T08:04:31;102764.97;;;13.55;32.44
20368;BME280;10343;52.402;9.796;2023-04-03T08:06:59;102766.75;;;13.34;32.63
20368;BME280;10343;52.402;9.796;2023-04-03T08:09:27;102774.75;;;12.96;33.52
20368;BME280;10343;52.402;9.796;2023-04-03T08:11:55;102776.53;;;12.80;33.26
20368;BME280;10343;52.402;9.796;2023-04-03T08:14:23;102778.94;;;11.92;35.25
20368;BME280;10343;52.402;9.796;2023-04-03T08:16:52;102777.28;;;12.23;34.83
20368;BME280;10343;52.402;9.796;2023-04-03T08:19:21;102772.09;;;12.71;34.58
20368;BME280;10343;52.402;9.796;2023-04-03T08:21:53;102780.06;;;13.11;33.66
20368;BME280;10343;52.402;9.796;2023-04-03T08:24:21;102773.88;;;13.48;33.42
20368;BME280;10343;52.402;9.796;2023-04-03T08:26:49;102771.75;;;14.33;31.80
20368;BME280;10343;52.402;9.796;2023-04-03T08:29:17;102763.56;;;15.65;30.25
20368;BME280;10343;52.402;9.796;2023-04-03T08:31:45;102765.34;;;14.71;31.23
20368;BME280;10343;52.402;9.796;2023-04-03T08:34:13;102765.00;;;13.42;32.88
20368;BME280;10343;52.402;9.796;2023-04-03T08:36:42;102770.31;;;13.50;32.72
20368;BME280;10343;52.402;9.796;2023-04-03T08:39:11;102768.41;;;13.94;32.39
20368;BME280;10343;52.402;9.796;2023-04-03T08:41:41;102779.16;;;13.72;32.37
20368;BME280;10343;52.402;9.796;2023-04-03T08:44:23;102770.34;;;13.38;32.98
20368;BME280;10343;52.402;9.796;2023-04-03T08:47:00;102770.19;;;13.92;31.71
20368;BME280;10343;52.402;9.796;2023-04-03T08:49:33;102760.34;;;14.08;31.43
20368;BME280;10343;52.402;9.796;2023-04-03T08:52:08;102762.09;;;14.15;31.75
20368;BME280;10343;52.402;9.796;2023-04-03T08:54:48;102768.34;;;14.06;31.05
20368;BME280;10343;52.402;9.796;2023-04-03T08:57:17;102764.56;;;14.44;30.25
20368;BME280;10343;52.402;9.796;2023-04-03T08:59:46;102758.41;;;14.36;30.49
20368;BME280;10343;52.402;9.796;2023-04-03T09:02:24;102757.25;;;14.77;29.33
20368;BME280;10343;52.402;9.796;2023-04-03T09:04:53;102762.03;;;14.26;29.04
20368;BME280;10343;52.402;9.796;2023-04-03T09:07:32;102754.44;;;14.98;28.72
20368;BME280;10343;52.402;9.796;2023-04-03T09:10:00;102762.63;;;14.74;29.39
20368;BME280;10343;52.402;9.796;2023-04-03T09:12:34;102753.50;;;15.03;28.66
20368;BME280;10343;52.402;9.796;2023-04-03T09:15:11;102773.56;;;14.31;29.22
20368;BME280;10343;52.402;9.796;2023-04-03T09:17:59;102758.13;;;15.71;28.08
20368;BME280;10343;52.402;9.796;2023-04-03T09:20:38;102753.97;;;17.34;26.28
20368;BME280;10343;52.402;9.796;2023-04-03T09:23:17;102747.75;;;15.43;27.75
20368;BME280;10343;52.402;9.796;2023-04-03T09:25:46;102750.06;;;15.77;27.67
20368;BME280;10343;52.402;9.796;2023-04-03T09:28:14;102755.66;;;14.53;28.05
20368;BME280;10343;52.402;9.796;2023-04-03T09:30:42;102758.28;;;14.52;28.85
20368;BME280;10343;52.402;9.796;2023-04-03T09:33:10;102744.69;;;15.82;27.43
20368;BME280;10343;52.402;9.796;2023-04-03T09:35:40;102748.09;;;15.11;27.95
20368;BME280;10343;52.402;9.796;2023-04-03T09:38:18;102738.47;;;15.75;27.64
20368;BME280;10343;52.402;9.796;2023-04-03T09:40:49;102737.88;;;15.52;27.88
20368;BME280;10343;52.402;9.796;2023-04-03T09:43:27;102736.31;;;16.08;27.21
20368;BME280;10343;52.402;9.796;2023-04-03T09:45:56;102733.63;;;15.32;26.64
20368;BME280;10343;52.402;9.796;2023-04-03T09:48:34;102730.88;;;17.27;24.25
20368;BME280;10343;52.402;9.796;2023-04-03T09:51:02;102728.41;;;16.61;24.63
20368;BME280;10343;52.402;9.796;2023-04-03T09:53:34;102736.03;;;15.57;24.59
20368;BME280;10343;52.402;9.796;2023-04-03T09:56:09;102730.84;;;15.40;24.56
20368;BME280;10343;52.402;9.796;2023-04-03T09:58:47;102729.31;;;15.19;25.06
20368;BME280;10343;52.402;9.796;2023-04-03T10:01:27;102710.91;;;16.37;24.33
20368;BME280;10343;52.402;9.796;2023-04-03T10:04:08;102703.91;;;16.86;23.80
20368;BME280;10343;52.402;9.796;2023-04-03T10:06:38;102696.44;;;17.51;22.76
20368;BME280;10343;52.402;9.796;2023-04-03T10:09:19;102698.34;;;18.30;22.22
20368;BME280;10343;52.402;9.796;2023-04-03T10:11:58;102708.63;;;17.22;22.23
20368;BME280;10343;52.402;9.796;2023-04-03T10:14:28;102696.19;;;17.18;22.40
20368;BME280;10343;52.402;9.796;2023-04-03T10:17:02;102705.63;;;17.82;22.37
20368;BME280;10343;52.402;9.796;2023-04-03T10:19:34;102700.91;;;16.48;23.22
20368;BME280;10343;52.402;9.796;2023-04-03T10:22:13;102695.47;;;15.21;24.78
20368;BME280;10343;52.402;9.796;2023-04-03T10:24:52;102694.34;;;18.46;21.92
20368;BME280;10343;52.402;9.796;2023-04-03T10:27:30;102694.72;;;18.31;22.26
20368;BME280;10343;52.402;9.796;2023-04-03T10:30:05;102671.72;;;20.44;20.24
20368;BME280;10343;52.402;9.796;2023-04-03T10:32:46;102683.78;;;18.40;21.67
20368;BME280;10343;52.402;9.796;2023-04-03T10:35:25;102686.56;;;17.07;23.00
20368;BME280;10343;52.402;9.796;2023-04-03T10:38:02;102686.59;;;16.51;23.75
20368;BME280;10343;52.402;9.796;2023-04-03T10:40:38;102679.31;;;18.00;22.51
20368;BME280;10343;52.402;9.796;2023-04-03T10:43:15;102691.28;;;14.89;25.65
20368;BME280;10343;52.402;9.796;2023-04-03T10:45:58;102677.50;;;17.14;23.26
20368;BME280;10343;52.402;9.796;2023-04-03T10:48:44;102691.19;;;16.46;23.71
20368;BME280;10343;52.402;9.796;2023-04-03T10:51:24;102680.06;;;16.69;23.36
20368;BME280;10343;52.402;9.796;2023-04-03T10:53:56;102676.66;;;17.58;22.72
20368;BME280;10343;52.402;9.796;2023-04-03T10:56:36;102676.03;;;17.43;22.38
20368;BME280;10343;52.402;9.796;2023-04-03T10:59:18;102674.13;;;15.91;23.79
20368;BME280;10343;52.402;9.796;2023-04-03T11:01:51;102666.94;;;16.54;23.54
20368;BME280;10343;52.402;9.796;2023-04-03T11:04:23;102666.50;;;16.24;23.42
20368;BME280;10343;52.402;9.796;2023-04-03T11:06:55;102670.47;;;16.57;23.70
20368;BME280;10343;52.402;9.796;2023-04-03T11:09:27;102666.19;;;16.45;23.96
20368;BME280;10343;52.402;9.796;2023-04-03T11:12:01;102657.31;;;16.43;23.75
20368;BME280;10343;52.402;9.796;2023-04-03T11:14:33;102667.22;;;15.71;24.43
20368;BME280;10343;52.402;9.796;2023-04-03T11:17:08;102658.97;;;16.51;23.23
20368;BME280;10343;52.402;9.796;2023-04-03T11:19:41;102647.06;;;16.67;23.38
20368;BME280;10343;52.402;9.796;2023-04-03T11:22:17;102662.66;;;15.83;23.83
20368;BME280;10343;52.402;9.796;2023-04-03T11:24:57;102655.56;;;16.39;23.31
20368;BME280;10343;52.402;9.796;2023-04-03T11:27:32;102645.97;;;15.62;24.27
20368;BME280;10343;52.402;9.796;2023-04-03T11:30:06;102648.56;;;15.67;23.68
20368;BME280;10343;52.402;9.796;2023-04-03T11:32:51;102638.91;;;15.58;24.90
20368;BME280;10343;52.402;9.796;2023-04-03T11:35:24;102639.25;;;16.55;23.87
20368;BME280;10343;52.402;9.796;2023-04-03T11:37:53;102639.16;;;17.11;23.29
20368;BME280;10343;52.402;9.796;2023-04-03T11:40:24;102635.50;;;16.65;23.56
20368;BME280;10343;52.402;9.796;2023-04-03T11:43:04;102638.94;;;16.19;24.24
20368;BME280;10343;52.402;9.796;2023-04-03T11:45:38;102649.81;;;15.39;24.94
20368;BME280;10343;52.402;9.796;2023-04-03T11:51:40;102634.28;;;17.30;24.28
20368;BME280;10343;52.402;9.796;2023-04-03T11:54:35;102638.13;;;16.13;24.95
20368;BME280;10343;52.402;9.796;2023-04-03T11:57:43;102632.56;;;17.29;22.88
20368;BME280;10343;52.402;9.796;2023-04-03T12:00:48;102625.66;;;16.67;24.89
20368;BME280;10343;52.402;9.796;2023-04-03T12:07:11;102630.31;;;17.06;23.01
20368;BME280;10343;52.402;9.796;2023-04-03T12:10:16;102620.19;;;17.20;22.92
20368;BME280;10343;52.402;9.796;2023-04-03T12:12:59;102621.31;;;17.54;22.38
20368;BME280;10343;52.402;9.796;2023-04-03T12:15:52;102625.06;;;17.86;22.20
20368;BME280;10343;52.402;9.796;2023-04-03T12:18:54;102619.84;;;18.19;21.53
20368;BME280;10343;52.402;9.796;2023-04-03T12:21:24;102622.78;;;17.67;22.04
20368;BME280;10343;52.402;9.796;2023-04-03T12:24:25;102621.66;;;16.93;22.99
20368;BME280;10343;52.402;9.796;2023-04-03T12:27:14;102626.69;;;17.54;22.31
20368;BME280;10343;52.402;9.796;2023-04-03T12:29:47;102622.91;;;18.03;21.97
20368;BME280;10343;52.402;9.796;2023-04-03T12:32:31;102623.34;;;17.41;22.06
20368;BME280;10343;52.402;9.796;2023-04-03T12:35:14;102606.97;;;17.95;21.81
20368;BME280;10343;52.402;9.796;2023-04-03T12:37:56;102603.38;;;17.56;22.64
20368;BME280;10343;52.402;9.796;2023-04-03T12:40:37;102610.25;;;15.66;24.66
20368;BME280;10343;52.402;9.796;2023-04-03T12:43:25;102603.97;;;15.69;25.10
20368;BME280;10343;52.402;9.796;2023-04-03T12:46:02;102600.41;;;16.29;24.12
20368;BME280;10343;52.402;9.796;2023-04-03T12:48:33;102604.75;;;16.38;23.85
20368;BME280;10343;52.402;9.796;2023-04-03T12:51:05;102596.31;;;16.59;23.15
20368;BME280;10343;52.402;9.796;2023-04-03T12:53:35;102585.84;;;17.39;22.25
20368;BME280;10343;52.402;9.796;2023-04-03T12:56:23;102590.97;;;17.08;23.07
20368;BME280;10343;52.402;9.796;2023-04-03T12:58:53;102585.91;;;17.36;22.70
20368;BME280;10343;52.402;9.796;2023-04-03T13:01:23;102574.31;;;18.14;21.74
20368;BME280;10343;52.402;9.796;2023-04-03T13:03:53;102581.13;;;17.51;22.04
20368;BME280;10343;52.402;9.796;2023-04-03T13:06:24;102580.06;;;17.17;22.25
20368;BME280;10343;52.402;9.796;2023-04-03T13:08:53;102568.03;;;16.94;22.32
20368;BME280;10343;52.402;9.796;2023-04-03T13:11:25;102558.81;;;17.88;21.84
20368;BME280;10343;52.402;9.796;2023-04-03T13:13:56;102557.19;;;18.85;21.21
20368;BME280;10343;52.402;9.796;2023-04-03T13:16:24;102565.50;;;17.30;21.40
20368;BME280;10343;52.402;9.796;2023-04-03T13:18:54;102562.63;;;17.38;21.50
20368;BME280;10343;52.402;9.796;2023-04-03T13:21:24;102571.13;;;16.71;21.64